sensor_id;sensor_type;location;lat;lon;timestamp;pressure;altitude;pressure_sealevel;temperature;humidity
19797;BME280;10058;57.654;12.044;2023-10-13T00:01:00;100289.53;;;10.72;100.00
19797;BME280;10058;57.654;12.044;2023-10-13T00:03:29;100295.72;;;10.73;100.00
19797;BME280;10058;57.654;12.044;2023-10-13T00:05:57;100288.66;;;10.72;100.00
19797;BME280;10058;57.654;12.044;2023-10-13T00:08:24;100252.81;;;10.42;100.00
19797;BME280;10058;57.654;12.044;2023-10-13T00:10:49;100300.63;;;10.55;100.00
19797;BME280;10058;57.654;12.044;2023-10-13T00:13:14;100294.25;;;10.45;100.00
19797;BME280;10058;57.654;12.044;2023-10-13T00:15:46;100290.78;;;10.48;100.00
19797;BME280;10058;57.654;12.044;2023-10-13T00:18:25;100295.91;;;10.40;100.00
19797;BME280;10058;57.654;12.044;2023-10-13T00:20:52;100290.44;;;10.31;100.00
19797;BME280;10058;57.654;12.044;2023-10-13T00:23:21;100292.06;;;10.24;100.00
19797;BME280;10058;57.654;12.044;2023-10-13T00:25:47;100294.94;;;10.35;100.00
19797;BME280;10058;57.654;12.044;2023-10-13T00:28:21;100289.78;;;10.42;100.00
19797;BME280;10058;57.654;12.044;2023-10-13T00:30:50;100294.16;;;10.40;100.00
19797;BME280;10058;57.654;12.044;2023-10-13T00:33:18;100289.63;;;10.33;100.00
19797;BME280;10058;57.654;12.044;2023-10-13T00:35:46;100299.16;;;10.27;100.00
19797;BME280;10058;57.654;12.044;2023-10-13T00:38:12;100301.75;;;10.25;100.00
19797;BME280;10058;57.654;12.044;2023-10-13T00:40:38;100303.47;;;10.23;100.00
19797;BME280;10058;57.654;12.044;2023-10-13T00:43:04;100290.06;;;10.14;100.00
19797;BME280;10058;57.654;12.044;2023-10-13T00:45:44;100293.28;;;10.01;100.00
19797;BME280;10058;57.654;12.044;2023-10-13T00:48:13;100290.78;;;10.07;100.00
19797;BME280;10058;57.654;12.044;2023-10-13T00:50:40;100290.72;;;10.04;100.00
19797;BME280;10058;57.654;12.044;2023-10-13T00:53:06;100285.56;;;10.10;100.00
19797;BME280;10058;57.654;12.044;2023-10-13T00:55:32;100287.28;;;10.08;100.00
19797;BME280;10058;57.654;12.044;2023-10-13T00:57:59;100306.69;;;10.10;100.00
19797;BME280;10058;57.654;12.044;2023-10-13T01:00:28;100304.81;;;10.06;100.00
19797;BME280;10058;57.654;12.044;2023-10-13T01:02:53;100307.50;;;10.07;100.00
19797;BME280;10058;57.654;12.044;2023-10-13T01:05:25;100320.91;;;10.15;100.00
19797;BME280;10058;57.654;12.044;2023-10-13T01:07:50;100314.13;;;10.26;100.00
19797;BME280;10058;57.654;12.044;2023-10-13T01:10:19;100308.91;;;10.29;100.00
19797;BME280;10058;57.654;12.044;2023-10-13T01:12:46;100305.47;;;10.33;100.00
19797;BME280;10058;57.654;12.044;2023-10-13T01:15:11;100309.03;;;10.35;100.00
19797;BME280;10058;57.654;12.044;2023-10-13T01:17:41;100311.72;;;10.37;100.00
19797;BME280;10058;57.654;12.044;2023-10-13T01:20:09;100314.50;;;10.44;100.00
19797;BME280;10058;57.654;12.044;2023-10-13T01:22:36;100307.63;;;10.53;100.00
19797;BME280;10058;57.654;12.044;2023-10-13T01:25:01;100303.31;;;10.56;100.00
19797;BME280;10058;57.654;12.044;2023-10-13T01:27:38;100305.84;;;10.52;100.00
19797;BME280;10058;57.654;12.044;2023-10-13T01:30:03;100311.81;;;10.43;100.00
19797;BME280;10058;57.654;12.044;2023-10-13T01:32:35;100315.97;;;10.30;100.00
19797;BME280;10058;57.654;12.044;2023-10-13T01:35:06;100326.38;;;10.24;100.00
19797;BME280;10058;57.654;12.044;2023-10-13T01:37:31;100316.66;;;10.22;100.00
19797;BME280;10058;57.654;12.044;2023-10-13T01:39:56;100313.91;;;10.17;100.00
19797;BME280;10058;57.654;12.044;2023-10-13T01:42:23;100305.88;;;10.12;100.00
19797;BME280;10058;57.654;12.044;2023-10-13T01:44:49;100314.50;;;10.05;100.00
19797;BME280;10058;57.654;12.044;2023-10-13T01:47:15;100325.75;;;9.97;100.00
19797;BME280;10058;57.654;12.044;2023-10-13T01:49:41;100327.53;;;9.98;100.00
19797;BME280;10058;57.654;12.044;2023-10-13T01:52:08;100335.44;;;9.96;100.00
19797;BME280;10058;57.654;12.044;2023-10-13T01:54:36;100323.28;;;10.03;100.00
19797;BME280;10058;57.654;12.044;2023-10-13T01:57:05;100327.81;;;10.10;100.00
19797;BME280;10058;57.654;12.044;2023-10-13T01:59:30;100324.59;;;10.23;100.00
19797;BME280;10058;57.654;12.044;2023-10-13T02:01:56;100319.47;;;10.29;100.00
19797;BME280;10058;57.654;12.044;2023-10-13T02:04:25;100308.31;;;10.44;100.00
19797;BME280;10058;57.654;12.044;2023-10-13T02:06:51;100304.06;;;10.51;100.00
19797;BME280;10058;57.654;12.044;2023-10-13T02:09:17;100298.88;;;10.57;100.00
19797;BME280;10058;57.654;12.044;2023-10-13T02:11:51;100287.53;;;10.61;100.00
19797;BME280;10058;57.654;12.044;2023-10-13T02:14:19;100276.84;;;10.55;100.00
19797;BME280;10058;57.654;12.044;2023-10-13T02:16:46;100279.47;;;10.53;100.00
19797;BME280;10058;57.654;12.044;2023-10-13T02:19:12;100283.00;;;10.54;100.00
19797;BME280;10058;57.654;12.044;2023-10-13T02:21:40;100278.75;;;10.62;100.00
19797;BME280;10058;57.654;12.044;2023-10-13T02:24:08;100281.44;;;10.65;100.00
19797;BME280;10058;57.654;12.044;2023-10-13T02:26:38;100275.53;;;10.78;100.00
19797;BME280;10058;57.654;12.044;2023-10-13T02:29:03;100271.22;;;10.83;100.00
19797;BME280;10058;57.654;12.044;2023-10-13T02:31:32;100251.97;;;10.90;100.00
19797;BME280;10058;57.654;12.044;2023-10-13T02:33:59;100244.13;;;10.96;100.00
19797;BME280;10058;57.654;12.044;2023-10-13T02:36:25;100228.50;;;11.10;100.00
19797;BME280;10058;57.654;12.044;2023-10-13T02:39:01;100232.06;;;11.12;100.00
19797;BME280;10058;57.654;12.044;2023-10-13T02:41:32;100234.78;;;11.16;100.00
19797;BME280;10058;57.654;12.044;2023-10-13T02:43:58;100233.13;;;11.22;100.00
19797;BME280;10058;57.654;12.044;2023-10-13T02:46:23;100230.53;;;11.25;100.00
19797;BME280;10058;57.654;12.044;2023-10-13T02:48:53;100221.78;;;11.30;100.00
19797;BME280;10058;57.654;12.044;2023-10-13T02:51:19;100220.94;;;11.33;100.00
19797;BME280;10058;57.654;12.044;2023-10-13T02:53:48;100217.44;;;11.34;100.00
19797;BME280;10058;57.654;12.044;2023-10-13T02:56:14;100226.28;;;11.36;100.00
19797;BME280;10058;57.654;12.044;2023-10-13T02:58:45;100234.19;;;11.34;100.00
19797;BME280;10058;57.654;12.044;2023-10-13T03:01:18;100225.53;;;11.46;100.00
19797;BME280;10058;57.654;12.044;2023-10-13T03:03:50;100207.94;;;11.48;100.00
19797;BME280;10058;57.654;12.044;2023-10-13T03:06:17;100210.47;;;11.39;100.00
19797;BME280;10058;57.654;12.044;2023-10-13T03:08:43;100212.41;;;11.52;100.00
19797;BME280;10058;57.654;12.044;2023-10-13T03:11:09;100198.41;;;11.59;100.00
19797;BME280;10058;57.654;12.044;2023-10-13T03:13:34;100189.56;;;11.60;100.00
19797;BME280;10058;57.654;12.044;2023-10-13T03:16:00;100186.00;;;11.55;100.00
19797;BME280;10058;57.654;12.044;2023-10-13T03:18:25;100179.13;;;11.69;100.00
19797;BME280;10058;57.654;12.044;2023-10-13T03:20:51;100184.44;;;11.69;100.00
19797;BME280;10058;57.654;12.044;2023-10-13T03:23:22;100179.00;;;11.60;100.00
19797;BME280;10058;57.654;12.044;2023-10-13T03:25:49;100170.22;;;11.64;100.00
19797;BME280;10058;57.654;12.044;2023-10-13T03:28:20;100164.94;;;11.64;100.00
19797;BME280;10058;57.654;12.044;2023-10-13T03:30:48;100159.38;;;11.46;100.00
19797;BME280;10058;57.654;12.044;2023-10-13T03:33:17;100152.31;;;11.45;100.00
19797;BME280;10058;57.654;12.044;2023-10-13T03:35:51;100161.22;;;11.50;100.00
19797;BME280;10058;57.654;12.044;2023-10-13T03:38:19;100147.06;;;11.48;100.00
19797;BME280;10058;57.654;12.044;2023-10-13T03:40:46;100145.47;;;11.58;100.00
19797;BME280;10058;57.654;12.044;2023-10-13T03:43:14;100149.91;;;11.62;100.00
19797;BME280;10058;57.654;12.044;2023-10-13T03:45:45;100140.19;;;11.59;100.00
19797;BME280;10058;57.654;12.044;2023-10-13T03:48:14;100143.72;;;11.61;100.00
19797;BME280;10058;57.654;12.044;2023-10-13T03:50:55;100136.69;;;11.63;100.00
19797;BME280;10058;57.654;12.044;2023-10-13T03:53:34;100124.38;;;11.65;100.00
19797;BME280;10058;57.654;12.044;2023-10-13T03:56:05;100115.50;;;11.63;100.00
19797;BME280;10058;57.654;12.044;2023-10-13T03:58:33;100117.25;;;11.61;100.00
19797;BME280;10058;57.654;12.044;2023-10-13T04:01:00;100112.13;;;11.73;100.00
19797;BME280;10058;57.654;12.044;2023-10-13T04:03:25;100108.63;;;11.74;100.00
19797;BME280;10058;57.654;12.044;2023-10-13T04:05:58;100108.59;;;11.73;100.00
19797;BME280;10058;57.654;12.044;2023-10-13T04:08:31;100108.50;;;11.67;100.00
19797;BME280;10058;57.654;12.044;2023-10-13T04:11:08;100118.19;;;11.66;100.00
19797;BME280;10058;57.654;12.044;2023-10-13T04:13:52;100114.72;;;11.70;100.00
19797;BME280;10058;57.654;12.044;2023-10-13T04:16:33;100101.44;;;11.67;100.00
19797;BME280;10058;57.654;12.044;2023-10-13T04:18:58;100102.34;;;11.68;100.00
19797;BME280;10058;57.654;12.044;2023-10-13T04:21:23;100101.41;;;11.64;100.00
19797;BME280;10058;57.654;12.044;2023-10-13T04:24:07;100093.50;;;11.67;100.00
19797;BME280;10058;57.654;12.044;2023-10-13T04:26:48;100092.66;;;11.68;100.00
19797;BME280;10058;57.654;12.044;2023-10-13T04:29:31;100093.53;;;11.69;100.00
19797;BME280;10058;57.654;12.044;2023-10-13T04:32:20;100092.66;;;11.68;100.00
19797;BME280;10058;57.654;12.044;2023-10-13T04:34:58;100083.91;;;11.75;100.00
19797;BME280;10058;57.654;12.044;2023-10-13T04:37:35;100085.72;;;11.76;100.00
19797;BME280;10058;57.654;12.044;2023-10-13T04:40:13;100078.69;;;11.77;100.00
19797;BME280;10058;57.654;12.044;2023-10-13T04:42:39;100073.38;;;11.78;100.00
19797;BME280;10058;57.654;12.044;2023-10-13T04:45:14;100068.97;;;11.76;100.00
19797;BME280;10058;57.654;12.044;2023-10-13T04:47:58;100065.47;;;11.81;100.00
19797;BME280;10058;57.654;12.044;2023-10-13T04:50:44;100059.25;;;11.76;100.00
19797;BME280;10058;57.654;12.044;2023-10-13T04:53:15;100054.03;;;11.85;100.00
19797;BME280;10058;57.654;12.044;2023-10-13T04:55:58;100055.78;;;11.83;100.00
19797;BME280;10058;57.654;12.044;2023-10-13T04:58:29;100038.97;;;11.77;100.00
19797;BME280;10058;57.654;12.044;2023-10-13T05:01:01;100043.41;;;11.82;100.00
19797;BME280;10058;57.654;12.044;2023-10-13T05:03:44;100032.91;;;11.89;100.00
19797;BME280;10058;57.654;12.044;2023-10-13T05:06:38;100019.69;;;11.92;100.00
19797;BME280;10058;57.654;12.044;2023-10-13T05:09:06;100022.28;;;11.85;100.00
19797;BME280;10058;57.654;12.044;2023-10-13T05:11:50;100023.84;;;11.71;100.00
19797;BME280;10058;57.654;12.044;2023-10-13T05:14:34;100009.00;;;11.84;100.00
19797;BME280;10058;57.654;12.044;2023-10-13T05:17:18;99999.31;;;11.84;100.00
19797;BME280;10058;57.654;12.044;2023-10-13T05:20:02;99995.00;;;11.93;100.00
19797;BME280;10058;57.654;12.044;2023-10-13T05:22:46;99989.66;;;11.90;100.00
19797;BME280;10058;57.654;12.044;2023-10-13T05:25:30;99993.25;;;11.95;100.00
19797;BME280;10058;57.654;12.044;2023-10-13T05:28:14;99987.06;;;11.94;100.00
19797;BME280;10058;57.654;12.044;2023-10-13T05:30:58;99978.25;;;11.97;100.00
19797;BME280;10058;57.654;12.044;2023-10-13T05:33:42;99976.50;;;11.99;100.00
19797;BME280;10058;57.654;12.044;2023-10-13T05:36:28;99963.25;;;11.97;100.00
19797;BME280;10058;57.654;12.044;2023-10-13T05:39:11;99969.50;;;12.04;100.00
19797;BME280;10058;57.654;12.044;2023-10-13T05:41:55;99969.41;;;11.98;100.00
19797;BME280;10058;57.654;12.044;2023-10-13T05:44:39;99964.13;;;11.99;100.00
19797;BME280;10058;57.654;12.044;2023-10-13T05:47:21;99969.50;;;12.04;100.00
19797;BME280;10058;57.654;12.044;2023-10-13T05:50:05;99965.13;;;12.07;100.00
19797;BME280;10058;57.654;12.044;2023-10-13T05:52:38;99968.63;;;12.06;100.00
19797;BME280;10058;57.654;12.044;2023-10-13T05:55:27;99955.28;;;11.97;100.00
19797;BME280;10058;57.654;12.044;2023-10-13T05:58:12;99946.63;;;12.12;100.00
19797;BME280;10058;57.654;12.044;2023-10-13T06:00:56;99952.59;;;11.90;100.00
19797;BME280;10058;57.654;12.044;2023-10-13T06:03:39;99935.09;;;12.08;100.00
19797;BME280;10058;57.654;12.044;2023-10-13T06:06:24;99933.34;;;12.13;100.00
19797;BME280;10058;57.654;12.044;2023-10-13T06:09:08;99927.22;;;12.19;100.00
19797;BME280;10058;57.654;12.044;2023-10-13T06:11:51;99937.78;;;12.11;100.00
19797;BME280;10058;57.654;12.044;2023-10-13T06:14:36;99934.31;;;12.22;100.00
19797;BME280;10058;57.654;12.044;2023-10-13T06:17:20;99920.97;;;12.08;100.00
19797;BME280;10058;57.654;12.044;2023-10-13T06:20:04;99923.63;;;12.08;100.00
19797;BME280;10058;57.654;12.044;2023-10-13T06:22:48;99923.75;;;12.25;100.00
19797;BME280;10058;57.654;12.044;2023-10-13T06:25:32;99923.78;;;12.29;100.00
19797;BME280;10058;57.654;12.044;2023-10-13T06:28:16;99920.22;;;12.30;100.00
19797;BME280;10058;57.654;12.044;2023-10-13T06:31:00;99922.91;;;12.35;100.00
19797;BME280;10058;57.654;12.044;2023-10-13T06:33:31;99915.88;;;12.37;100.00
19797;BME280;10058;57.654;12.044;2023-10-13T06:35:59;99913.25;;;12.38;100.00
19797;BME280;10058;57.654;12.044;2023-10-13T06:38:24;99910.63;;;12.41;100.00
19797;BME280;10058;57.654;12.044;2023-10-13T06:40:49;99918.56;;;12.41;100.00
19797;BME280;10058;57.654;12.044;2023-10-13T06:43:17;99913.28;;;12.44;100.00
19797;BME280;10058;57.654;12.044;2023-10-13T06:45:42;99911.53;;;12.49;100.00
19797;BME280;10058;57.654;12.044;2023-10-13T06:48:08;99906.22;;;12.49;100.00
19797;BME280;10058;57.654;12.044;2023-10-13T06:50:37;99902.69;;;12.44;100.00
19797;BME280;10058;57.654;12.044;2023-10-13T06:53:07;99898.16;;;12.31;100.00
19797;BME280;10058;57.654;12.044;2023-10-13T06:55:32;99902.69;;;12.44;100.00
19797;BME280;10058;57.654;12.044;2023-10-13T06:58:03;99863.75;;;12.34;100.00
19797;BME280;10058;57.654;12.044;2023-10-13T07:00:31;99887.72;;;12.57;100.00
19797;BME280;10058;57.654;12.044;2023-10-13T07:03:02;99893.03;;;12.55;100.00
19797;BME280;10058;57.654;12.044;2023-10-13T07:05:37;99889.53;;;12.61;100.00
19797;BME280;10058;57.654;12.044;2023-10-13T07:08:03;99883.38;;;12.70;100.00
19797;BME280;10058;57.654;12.044;2023-10-13T07:10:29;99888.66;;;12.64;100.00
19797;BME280;10058;57.654;12.044;2023-10-13T07:12:55;99881.63;;;12.75;100.00
19797;BME280;10058;57.654;12.044;2023-10-13T07:15:25;99874.56;;;12.77;100.00
19797;BME280;10058;57.654;12.044;2023-10-13T07:17:52;99879.00;;;12.82;100.00
19797;BME280;10058;57.654;12.044;2023-10-13T07:20:24;99871.94;;;12.87;100.00
19797;BME280;10058;57.654;12.044;2023-10-13T07:22:50;99873.75;;;12.92;100.00
19797;BME280;10058;57.654;12.044;2023-10-13T07:25:34;99855.13;;;12.78;100.00
19797;BME280;10058;57.654;12.044;2023-10-13T07:28:05;99853.41;;;12.89;100.00
19797;BME280;10058;57.654;12.044;2023-10-13T07:30:34;99844.59;;;12.96;100.00
19797;BME280;10058;57.654;12.044;2023-10-13T07:33:06;99844.59;;;12.93;100.00
19797;BME280;10058;57.654;12.044;2023-10-13T07:35:31;99835.72;;;12.88;100.00
19797;BME280;10058;57.654;12.044;2023-10-13T07:38:00;99834.00;;;12.96;100.00
19797;BME280;10058;57.654;12.044;2023-10-13T07:40:25;99826.91;;;12.98;100.00
19797;BME280;10058;57.654;12.044;2023-10-13T07:42:51;99818.09;;;13.07;100.00
19797;BME280;10058;57.654;12.044;2023-10-13T07:45:17;99811.03;;;13.13;100.00
19797;BME280;10058;57.654;12.044;2023-10-13T07:47:51;99804.88;;;13.20;100.00
19797;BME280;10058;57.654;12.044;2023-10-13T07:50:16;99798.69;;;13.28;100.00
19797;BME280;10058;57.654;12.044;2023-10-13T07:52:49;99790.75;;;13.41;100.00
19797;BME280;10058;57.654;12.044;2023-10-13T07:55:29;99791.63;;;13.25;100.00
19797;BME280;10058;57.654;12.044;2023-10-13T07:57:57;99788.97;;;13.43;100.00
19797;BME280;10058;57.654;12.044;2023-10-13T08:00:24;99792.50;;;13.41;100.00
19797;BME280;10058;57.654;12.044;2023-10-13T08:03:03;99786.31;;;13.36;100.00
19797;BME280;10058;57.654;12.044;2023-10-13T08:05:44;99766.88;;;13.49;100.00
19797;BME280;10058;57.654;12.044;2023-10-13T08:08:28;99766.88;;;13.49;100.00
19797;BME280;10058;57.654;12.044;2023-10-13T08:13:39;99761.53;;;13.55;100.00
19797;BME280;10058;57.654;12.044;2023-10-13T08:16:11;99759.78;;;13.66;100.00
19797;BME280;10058;57.654;12.044;2023-10-13T08:18:46;99748.28;;;13.49;100.00
19797;BME280;10058;57.654;12.044;2023-10-13T08:21:14;99745.63;;;13.49;100.00
19797;BME280;10058;57.654;12.044;2023-10-13T08:23:45;99731.44;;;13.59;100.00
19797;BME280;10058;57.654;12.044;2023-10-13T08:26:36;99733.19;;;13.75;100.00
19797;BME280;10058;57.654;12.044;2023-10-13T08:29:21;99715.50;;;13.71;100.00
19797;BME280;10058;57.654;12.044;2023-10-13T08:31:50;99704.88;;;13.80;100.00
19797;BME280;10058;57.654;12.044;2023-10-13T08:34:46;99697.78;;;13.69;100.00
19797;BME280;10058;57.654;12.044;2023-10-13T08:37:12;99699.56;;;13.70;100.00
19797;BME280;10058;57.654;12.044;2023-10-13T08:39:57;99686.31;;;13.67;100.00
19797;BME280;10058;57.654;12.044;2023-10-13T08:42:29;99690.69;;;13.72;100.00
19797;BME280;10058;57.654;12.044;2023-10-13T08:44:59;99676.53;;;13.79;100.00
19797;BME280;10058;57.654;12.044;2023-10-13T08:47:30;99680.06;;;13.78;100.00
19797;BME280;10058;57.654;12.044;2023-10-13T08:50:01;99664.13;;;13.84;100.00
19797;BME280;10058;57.654;12.044;2023-10-13T08:52:35;99667.69;;;13.71;100.00
19797;BME280;10058;57.654;12.044;2023-10-13T08:55:11;99657.00;;;13.86;100.00
19797;BME280;10058;57.654;12.044;2023-10-13T08:57:57;99656.19;;;13.77;100.00
19797;BME280;10058;57.654;12.044;2023-10-13T09:00:28;99649.94;;;13.91;100.00
19797;BME280;10058;57.654;12.044;2023-10-13T09:03:20;99637.56;;;13.84;100.00
19797;BME280;10058;57.654;12.044;2023-10-13T09:06:03;99646.38;;;13.96;100.00
19797;BME280;10058;57.654;12.044;2023-10-13T09:08:31;99635.75;;;13.97;100.00
19797;BME280;10058;57.654;12.044;2023-10-13T09:11:22;99628.66;;;13.94;100.00
19797;BME280;10058;57.654;12.044;2023-10-13T09:13:51;99626.91;;;13.87;100.00
19797;BME280;10058;57.654;12.044;2023-10-13T09:16:17;99617.09;;;14.09;100.00
19797;BME280;10058;57.654;12.044;2023-10-13T09:19:01;99623.34;;;13.93;100.00
19797;BME280;10058;57.654;12.044;2023-10-13T09:21:29;99603.88;;;13.92;100.00
19797;BME280;10058;57.654;12.044;2023-10-13T09:24:08;99601.13;;;14.09;100.00
19797;BME280;10058;57.654;12.044;2023-10-13T09:26:54;99591.22;;;14.40;100.00
19797;BME280;10058;57.654;12.044;2023-10-13T09:29:26;99584.19;;;14.30;100.00
19797;BME280;10058;57.654;12.044;2023-10-13T09:32:03;99573.66;;;14.18;100.00
19797;BME280;10058;57.654;12.044;2023-10-13T09:34:28;99562.16;;;14.13;100.00
19797;BME280;10058;57.654;12.044;2023-10-13T09:37:05;99564.03;;;13.94;100.00
19797;BME280;10058;57.654;12.044;2023-10-13T09:39:31;99569.28;;;14.05;100.00
19797;BME280;10058;57.654;12.044;2023-10-13T09:42:18;99547.19;;;14.00;100.00
19797;BME280;10058;57.654;12.044;2023-10-13T09:44:43;99537.34;;;14.14;100.00
19797;BME280;10058;57.654;12.044;2023-10-13T09:47:15;99533.13;;;13.79;100.00
19797;BME280;10058;57.654;12.044;2023-10-13T09:49:44;99521.66;;;13.70;100.00
19797;BME280;10058;57.654;12.044;2023-10-13T09:52:17;99518.97;;;13.80;100.00
19797;BME280;10058;57.654;12.044;2023-10-13T09:54:55;99511.97;;;13.67;100.00
19797;BME280;10058;57.654;12.044;2023-10-13T09:57:26;99504.91;;;13.57;100.00
19797;BME280;10058;57.654;12.044;2023-10-13T10:00:00;99500.41;;;13.70;100.00
19797;BME280;10058;57.654;12.044;2023-10-13T10:02:31;99490.56;;;13.85;100.00
19797;BME280;10058;57.654;12.044;2023-10-13T10:04:57;99480.81;;;13.93;100.00
19797;BME280;10058;57.654;12.044;2023-10-13T10:07:43;99481.66;;;13.99;100.00
19797;BME280;10058;57.654;12.044;2023-10-13T10:10:13;99470.22;;;13.87;100.00
19797;BME280;10058;57.654;12.044;2023-10-13T10:12:48;99455.16;;;13.86;100.00
19797;BME280;10058;57.654;12.044;2023-10-13T10:17:53;99442.84;;;13.78;100.00
19797;BME280;10058;57.654;12.044;2023-10-13T10:20:27;99435.72;;;13.84;100.00
19797;BME280;10058;57.654;12.044;2023-10-13T10:22:58;99432.34;;;13.55;100.00
19797;BME280;10058;57.654;12.044;2023-10-13T10:25:29;99417.28;;;13.60;100.00
19797;BME280;10058;57.654;12.044;2023-10-13T10:28:00;99402.31;;;13.50;100.00
19797;BME280;10058;57.654;12.044;2023-10-13T10:30:26;99399.59;;;13.62;100.00
19797;BME280;10058;57.654;12.044;2023-10-13T10:32:58;99383.69;;;13.53;100.00
19797;BME280;10058;57.654;12.044;2023-10-13T10:35:31;99376.69;;;13.49;100.00
19797;BME280;10058;57.654;12.044;2023-10-13T10:40:52;99357.41;;;13.12;100.00
19797;BME280;10058;57.654;12.044;2023-10-13T10:45:51;99360.91;;;13.21;100.00
19797;BME280;10058;57.654;12.044;2023-10-13T10:48:17;99357.41;;;13.09;100.00
19797;BME280;10058;57.654;12.044;2023-10-13T10:50:52;99341.56;;;12.98;100.00
19797;BME280;10058;57.654;12.044;2023-10-13T10:53:23;99340.63;;;13.05;100.00
19797;BME280;10058;57.654;12.044;2023-10-13T10:56:03;99322.13;;;12.95;100.00
19797;BME280;10058;57.654;12.044;2023-10-13T10:58:33;99319.44;;;12.99;100.00
19797;BME280;10058;57.654;12.044;2023-10-13T11:01:05;99316.03;;;12.73;100.00
19797;BME280;10058;57.654;12.044;2023-10-13T11:03:35;99303.59;;;12.84;100.00
19797;BME280;10058;57.654;12.044;2023-10-13T11:06:03;99309.78;;;12.84;100.00
19797;BME280;10058;57.654;12.044;2023-10-13T11:08:28;99301.78;;;12.98;100.00
19797;BME280;10058;57.654;12.044;2023-10-13T11:10:57;99287.69;;;12.87;100.00
19797;BME280;10058;57.654;12.044;2023-10-13T11:13:22;99282.47;;;12.66;100.00
19797;BME280;10058;57.654;12.044;2023-10-13T11:15:48;99282.47;;;12.69;100.00
19797;BME280;10058;57.654;12.044;2023-10-13T11:18:13;99278.91;;;12.79;100.00
19797;BME280;10058;57.654;12.044;2023-10-13T11:20:45;99265.59;;;12.85;100.00
19797;BME280;10058;57.654;12.044;2023-10-13T11:23:11;99249.75;;;12.71;100.00
19797;BME280;10058;57.654;12.044;2023-10-13T11:25:37;99253.28;;;12.76;100.00
19797;BME280;10058;57.654;12.044;2023-10-13T11:28:12;99248.06;;;12.58;100.00
19797;BME280;10058;57.654;12.044;2023-10-13T11:30:52;99242.69;;;12.78;100.00
19797;BME280;10058;57.654;12.044;2023-10-13T11:33:18;99225.88;;;12.79;100.00
19797;BME280;10058;57.654;12.044;2023-10-13T11:35:44;99217.06;;;12.71;100.00
19797;BME280;10058;57.654;12.044;2023-10-13T11:38:23;99208.22;;;12.78;100.00
19797;BME280;10058;57.654;12.044;2023-10-13T11:41:02;99203.81;;;12.74;100.00
19797;BME280;10058;57.654;12.044;2023-10-13T11:46:10;99210.06;;;12.64;100.00
19797;BME280;10058;57.654;12.044;2023-10-13T11:48:41;99210.09;;;12.58;100.00
19797;BME280;10058;57.654;12.044;2023-10-13T11:51:13;99188.81;;;12.67;100.00
19797;BME280;10058;57.654;12.044;2023-10-13T11:53:45;99186.16;;;12.68;100.00
19797;BME280;10058;57.654;12.044;2023-10-13T11:56:17;99178.19;;;12.70;100.00
19797;BME280;10058;57.654;12.044;2023-10-13T11:58:45;99176.50;;;12.60;100.00
19797;BME280;10058;57.654;12.044;2023-10-13T12:01:11;99181.84;;;12.53;100.00
19797;BME280;10058;57.654;12.044;2023-10-13T12:03:43;99182.78;;;12.45;100.00
19797;BME280;10058;57.654;12.044;2023-10-13T12:06:28;99165.13;;;12.44;100.00
19797;BME280;10058;57.654;12.044;2023-10-13T12:09:07;99163.28;;;12.52;100.00
19797;BME280;10058;57.654;12.044;2023-10-13T12:11:45;99150.94;;;12.48;100.00
19797;BME280;10058;57.654;12.044;2023-10-13T12:14:11;99127.19;;;12.37;100.00
19797;BME280;10058;57.654;12.044;2023-10-13T12:16:49;99133.28;;;12.47;100.00
19797;BME280;10058;57.654;12.044;2023-10-13T12:19:19;99090.06;;;12.43;100.00
19797;BME280;10058;57.654;12.044;2023-10-13T12:21:48;99132.28;;;12.68;100.00
19797;BME280;10058;57.654;12.044;2023-10-13T12:24:14;99116.47;;;12.52;100.00
19797;BME280;10058;57.654;12.044;2023-10-13T12:26:58;99105.94;;;12.43;100.00
19797;BME280;10058;57.654;12.044;2023-10-13T12:29:23;99097.06;;;12.47;100.00
19797;BME280;10058;57.654;12.044;2023-10-13T12:31:53;99075.78;;;12.63;100.00
19797;BME280;10058;57.654;12.044;2023-10-13T12:34:36;99071.28;;;12.71;100.00
19797;BME280;10058;57.654;12.044;2023-10-13T12:37:23;99049.34;;;12.53;100.00
19797;BME280;10058;57.654;12.044;2023-10-13T12:40:16;99028.03;;;12.66;100.00
19797;BME280;10058;57.654;12.044;2023-10-13T12:43:01;99035.88;;;12.79;100.00
19797;BME280;10058;57.654;12.044;2023-10-13T12:45:46;99020.03;;;12.70;100.00
19797;BME280;10058;57.654;12.044;2023-10-13T12:48:30;98985.50;;;12.79;100.00
19797;BME280;10058;57.654;12.044;2023-10-13T12:51:15;98993.47;;;12.78;100.00
19797;BME280;10058;57.654;12.044;2023-10-13T12:53:56;98989.00;;;12.81;100.00
19797;BME280;10058;57.654;12.044;2023-10-13T12:56:30;98978.44;;;12.80;100.00
19797;BME280;10058;57.654;12.044;2023-10-13T12:58:55;98960.94;;;12.64;100.00
19797;BME280;10058;57.654;12.044;2023-10-13T13:01:25;98958.31;;;12.58;100.00
19797;BME280;10058;57.654;12.044;2023-10-13T13:03:57;98936.97;;;12.71;100.00
19797;BME280;10058;57.654;12.044;2023-10-13T13:06:24;98928.16;;;12.71;100.00
19797;BME280;10058;57.654;12.044;2023-10-13T13:11:16;98900.81;;;12.66;100.00
19797;BME280;10058;57.654;12.044;2023-10-13T13:13:41;98890.09;;;12.78;100.00
19797;BME280;10058;57.654;12.044;2023-10-13T13:16:07;98879.69;;;12.60;100.00
19797;BME280;10058;57.654;12.044;2023-10-13T13:18:33;98877.91;;;12.62;100.00